Time;durP1;ratioP1;P1;durP2;ratioP2;P2;SDS_P1;SDS_P2;PMS_P1;PMS_P2;Temp;Humidity;BMP_temperature;BMP_pressure;BME280_temperature;BME280_humidity;BME280_pressure;Samples;Min_cycle;Max_cycle;Signal;HPM_P1;HPM_P2
2022/12/21 00:00:53;;;;;;;0.10;0.10;;;6.90;99.90;;;;;;5025274;28;20180;-67
2022/12/21 00:03:19;;;;;;;0.15;0.15;;;6.90;99.90;;;;;;5028616;28;20136;-67
2022/12/21 00:05:45;;;;;;;0.10;0.10;;;6.80;99.90;;;;;;5025874;28;20516;-67
2022/12/21 00:08:10;;;;;;;0.10;0.10;;;6.80;99.90;;;;;;5028144;28;20048;-67
2022/12/21 00:10:36;;;;;;;1.88;1.75;;;6.70;99.90;;;;;;5027357;28;20049;-67
2022/12/21 00:13:02;;;;;;;0.80;0.80;;;6.60;99.90;;;;;;5025969;28;20262;-67
2022/12/21 00:15:28;;;;;;;0.60;0.45;;;6.60;99.90;;;;;;5027465;28;20175;-67
2022/12/21 00:17:53;;;;;;;0.10;0.10;;;6.60;99.90;;;;;;5024586;28;20487;-67
2022/12/21 00:20:19;;;;;;;0.20;0.20;;;6.60;99.90;;;;;;5026846;28;20052;-67
2022/12/21 00:22:44;;;;;;;0.30;0.30;;;6.50;99.90;;;;;;5025299;28;20659;-67
2022/12/21 00:25:10;;;;;;;0.20;0.20;;;6.50;99.90;;;;;;5025815;28;20048;-67
2022/12/21 00:27:36;;;;;;;0.30;0.30;;;6.40;99.90;;;;;;5025722;28;20112;-67
2022/12/21 00:30:01;;;;;;;0.70;0.70;;;6.40;99.90;;;;;;5025943;28;20065;-67
2022/12/21 00:32:27;;;;;;;0.10;0.10;;;6.30;99.90;;;;;;5024874;28;20044;-67
2022/12/21 00:34:52;;;;;;;0.03;0.03;;;6.20;99.90;;;;;;5026174;28;20099;-67
2022/12/21 00:37:18;;;;;;;0.10;0.10;;;6.10;99.90;;;;;;5025368;28;20218;-65
2022/12/21 00:39:43;;;;;;;0.20;0.20;;;6.10;99.90;;;;;;5025580;28;20049;-67
2022/12/21 00:42:09;;;;;;;0.10;0.10;;;6.10;99.90;;;;;;5027190;28;20045;-67
2022/12/21 00:44:34;;;;;;;0.28;0.28;;;6.00;99.90;;;;;;5024901;28;20129;-67
2022/12/21 00:47:00;;;;;;;0.10;0.10;;;6.00;99.90;;;;;;5031822;28;20409;-67
2022/12/21 00:49:26;;;;;;;0.30;0.30;;;5.90;99.90;;;;;;5028074;28;20136;-67
2022/12/21 00:51:51;;;;;;;0.17;0.17;;;5.80;99.90;;;;;;5030294;28;20073;-67
2022/12/21 00:54:17;;;;;;;0.40;0.40;;;5.70;99.90;;;;;;5022962;28;20063;-66
2022/12/21 00:56:42;;;;;;;0.10;0.10;;;5.70;99.90;;;;;;5028001;28;20135;-67
2022/12/21 00:59:08;;;;;;;0.17;0.17;;;5.70;99.90;;;;;;5028757;28;20064;-67
2022/12/21 01:01:34;;;;;;;0.10;0.10;;;5.70;99.90;;;;;;5028788;28;20128;-67
2022/12/21 01:04:00;;;;;;;0.20;0.20;;;5.70;99.90;;;;;;5028473;28;20041;-66
2022/12/21 01:06:28;;;;;;;0.15;0.15;;;5.60;99.90;;;;;;5030816;28;20107;-67
2022/12/21 01:08:55;;;;;;;0.10;0.10;;;5.50;99.90;;;;;;5029483;28;20069;-67
2022/12/21 01:11:23;;;;;;;0.13;0.13;;;5.40;99.90;;;;;;5030257;28;20061;-67
2022/12/21 01:13:49;;;;;;;0.10;0.10;;;5.30;99.90;;;;;;5029782;28;20072;-66
2022/12/21 01:16:17;;;;;;;0.25;0.25;;;5.30;99.90;;;;;;5031573;28;20541;-67
2022/12/21 01:18:44;;;;;;;0.10;0.10;;;5.20;99.90;;;;;;5026347;28;21970;-67
2022/12/21 01:21:21;;;;;;;0.00;0.00;;;5.30;99.90;;;;;;5030882;28;20055;-67
2022/12/21 01:23:48;;;;;;;0.10;0.10;;;5.20;99.90;;;;;;5030452;28;20195;-67
2022/12/21 01:26:14;;;;;;;0.38;0.30;;;5.20;99.90;;;;;;5027736;28;20120;-67
2022/12/21 01:28:40;;;;;;;0.10;0.10;;;5.10;99.90;;;;;;5029560;28;20378;-67
2022/12/21 01:31:06;;;;;;;0.10;0.10;;;5.10;99.90;;;;;;5025699;28;20042;-67
2022/12/21 01:33:32;;;;;;;0.00;0.00;;;5.20;99.90;;;;;;5019112;28;20046;-67
2022/12/21 01:36:06;;;;;;;0.10;0.10;;;5.20;99.90;;;;;;5026638;28;20052;-67
2022/12/21 01:38:32;;;;;;;0.85;0.40;;;5.10;99.90;;;;;;5028606;28;20050;-67
2022/12/21 01:40:58;;;;;;;0.17;0.17;;;5.10;99.90;;;;;;5024442;28;20034;-67
2022/12/21 01:43:39;;;;;;;0.43;0.43;;;5.10;99.90;;;;;;5030144;28;20107;-67
2022/12/21 01:46:08;;;;;;;0.10;0.10;;;5.10;99.90;;;;;;5029728;28;20078;-67
2022/12/21 01:48:42;;;;;;;1.05;0.82;;;5.10;99.90;;;;;;5027248;28;20465;-67
2022/12/21 01:51:09;;;;;;;0.05;0.05;;;5.00;99.90;;;;;;5031136;28;20052;-67
2022/12/21 01:53:40;;;;;;;0.10;0.10;;;5.00;99.90;;;;;;5028472;28;20512;-67
2022/12/21 01:56:10;;;;;;;0.10;0.10;;;5.00;99.90;;;;;;5024779;28;20033;-67
2022/12/21 01:58:38;;;;;;;0.10;0.10;;;5.10;99.90;;;;;;5027654;28;20053;-66
2022/12/21 02:01:05;;;;;;;0.10;0.10;;;5.20;99.90;;;;;;5027675;28;20055;-67
2022/12/21 02:03:37;;;;;;;0.10;0.10;;;5.20;99.90;;;;;;5028209;28;20132;-67
2022/12/21 02:06:16;;;;;;;0.05;0.05;;;5.20;99.90;;;;;;5027874;28;20046;-67
2022/12/21 02:08:42;;;;;;;0.10;0.10;;;5.20;99.90;;;;;;5029160;28;20044;-67
2022/12/21 02:11:09;;;;;;;0.45;0.45;;;5.30;99.90;;;;;;5029141;28;20050;-67
2022/12/21 02:13:35;;;;;;;0.10;0.10;;;5.20;99.90;;;;;;5025276;28;20045;-68
2022/12/21 02:16:10;;;;;;;0.68;0.63;;;5.10;99.90;;;;;;5028629;28;20393;-67
2022/12/21 02:19:12;;;;;;;0.10;0.10;;;5.20;99.90;;;;;;5028773;28;20807;-67
2022/12/21 02:21:50;;;;;;;0.10;0.10;;;5.20;99.90;;;;;;5028230;28;20107;-68
2022/12/21 02:24:57;;;;;;;0.65;0.65;;;5.10;99.90;;;;;;5024551;28;20049;-67
2022/12/21 02:27:56;;;;;;;0.10;0.10;;;5.10;99.90;;;;;;4967330;28;20124;-68
2022/12/21 02:30:23;;;;;;;0.40;0.40;;;5.10;99.90;;;;;;5026942;28;20049;-67
2022/12/21 02:33:26;;;;;;;0.10;0.10;;;5.10;99.90;;;;;;5028540;28;20087;-67
2022/12/21 02:36:06;;;;;;;0.10;0.10;;;5.10;99.90;;;;;;5028860;28;20632;-68
2022/12/21 02:39:11;;;;;;;0.55;0.55;;;5.10;99.90;;;;;;5028507;28;20393;-67
2022/12/21 02:41:47;;;;;;;0.63;0.63;;;5.10;99.90;;;;;;5020098;28;20057;-67
2022/12/21 02:44:33;;;;;;;0.52;0.52;;;5.10;99.90;;;;;;5027956;28;20084;-67
2022/12/21 02:47:18;;;;;;;0.17;0.17;;;5.10;99.90;;;;;;5008648;28;20132;-67
2022/12/21 02:50:01;;;;;;;0.10;0.10;;;5.10;99.90;;;;;;5027950;28;20048;-67
2022/12/21 02:52:40;;;;;;;0.10;0.10;;;5.10;99.90;;;;;;5029592;28;20041;-67
2022/12/21 02:55:10;;;;;;;0.28;0.28;;;5.00;99.90;;;;;;5029168;28;20127;-67
2022/12/21 02:57:38;;;;;;;1.27;1.17;;;5.10;99.90;;;;;;5040702;28;20519;-67
2022/12/21 03:00:09;;;;;;;0.35;0.35;;;5.10;99.90;;;;;;5027400;28;20588;-67
2022/12/21 03:05:49;;;;;;;;;;;5.10;99.90;;;;;;5028696;28;20041;-67
2022/12/21 03:08:53;;;;;;;0.10;0.10;;;5.00;99.90;;;;;;5026507;28;19921;-67
2022/12/21 03:11:19;;;;;;;0.35;0.35;;;5.10;99.90;;;;;;5027719;28;20053;-67
2022/12/21 03:14:00;;;;;;;0.10;0.10;;;5.00;99.90;;;;;;5027144;28;20057;-68
2022/12/21 03:16:48;;;;;;;0.15;0.15;;;5.00;99.90;;;;;;5027705;28;20057;-67
2022/12/21 03:19:17;;;;;;;0.20;0.20;;;5.00;99.90;;;;;;5026183;28;20049;-67
2022/12/21 03:21:51;;;;;;;0.28;0.28;;;5.00;99.90;;;;;;5023294;28;20068;-67
2022/12/21 03:24:26;;;;;;;0.93;0.88;;;5.00;99.90;;;;;;5024848;28;20500;-67
2022/12/21 03:27:13;;;;;;;0.50;0.50;;;5.00;99.90;;;;;;5026899;28;20183;-67
2022/12/21 03:29:47;;;;;;;0.30;0.30;;;4.90;99.90;;;;;;5027775;28;20060;-67
2022/12/21 03:32:19;;;;;;;0.10;0.10;;;5.00;99.90;;;;;;5019116;28;20132;-67
2022/12/21 03:34:49;;;;;;;0.10;0.10;;;4.90;99.90;;;;;;5027755;28;20511;-67
2022/12/21 03:37:19;;;;;;;0.10;0.10;;;4.90;99.90;;;;;;5028163;28;20454;-67
2022/12/21 03:39:53;;;;;;;0.10;0.10;;;4.90;99.90;;;;;;5028211;28;20049;-67
2022/12/21 03:42:26;;;;;;;0.15;0.15;;;5.00;99.90;;;;;;5028044;28;20041;-67
2022/12/21 03:44:57;;;;;;;0.28;0.28;;;4.90;99.90;;;;;;5027316;28;20045;-67
2022/12/21 03:47:32;;;;;;;0.10;0.10;;;4.90;99.90;;;;;;5025782;28;20072;-67
2022/12/21 03:50:01;;;;;;;0.10;0.10;;;4.90;99.90;;;;;;5006200;28;20068;-67
2022/12/21 03:52:39;;;;;;;0.10;0.10;;;4.90;99.90;;;;;;5024065;28;20053;-67
2022/12/21 03:55:13;;;;;;;0.22;0.22;;;4.90;99.90;;;;;;5026327;28;20049;-67
2022/12/21 03:57:40;;;;;;;0.17;0.17;;;4.90;99.90;;;;;;5026323;28;20501;-67
2022/12/21 04:00:10;;;;;;;0.10;0.10;;;4.90;99.90;;;;;;5021775;28;20037;-67
2022/12/21 04:02:49;;;;;;;0.10;0.10;;;4.90;99.90;;;;;;5027381;28;20131;-67
2022/12/21 04:05:26;;;;;;;0.10;0.10;;;4.80;99.90;;;;;;5026839;28;20041;-67
2022/12/21 04:07:53;;;;;;;0.38;0.38;;;4.80;99.90;;;;;;5026286;28;20045;-67
2022/12/21 04:10:21;;;;;;;0.40;0.32;;;4.70;99.90;;;;;;5028559;28;20444;-67
2022/12/21 04:12:47;;;;;;;0.10;0.10;;;4.70;99.90;;;;;;5025799;28;20051;-67
2022/12/21 04:15:14;;;;;;;0.10;0.10;;;4.80;99.90;;;;;;5027958;28;20034;-67
2022/12/21 04:17:41;;;;;;;0.10;0.10;;;4.80;99.90;;;;;;5026149;28;20045;-67
2022/12/21 04:20:11;;;;;;;0.10;0.10;;;4.70;99.90;;;;;;5021139;28;20046;-67
2022/12/21 04:28:24;;;;;;;0.10;0.10;;;4.60;99.90;;;;;;5026926;28;20045;-67
2022/12/21 04:30:50;;;;;;;4.80;1.55;;;4.70;99.90;;;;;;5009523;28;20064;-67
2022/12/21 04:33:18;;;;;;;0.10;0.10;;;4.70;99.90;;;;;;5025716;28;20120;-67
2022/12/21 04:38:32;;;;;;;0.10;0.10;;;4.80;99.90;;;;;;5007648;28;20049;-67
2022/12/21 04:40:57;;;;;;;0.47;0.47;;;4.80;99.90;;;;;;5027108;28;20049;-67
2022/12/21 04:43:24;;;;;;;0.15;0.15;;;4.90;99.90;;;;;;5008141;28;20398;-67
2022/12/21 04:45:58;;;;;;;0.10;0.10;;;4.90;99.90;;;;;;5025380;28;20501;-67
2022/12/21 04:48:23;;;;;;;0.10;0.10;;;5.00;99.90;;;;;;5019324;28;20124;-67
2022/12/21 04:50:49;;;;;;;0.17;0.17;;;4.90;99.90;;;;;;5026995;28;20175;-66
2022/12/21 04:53:14;;;;;;;0.00;0.00;;;5.00;99.90;;;;;;5026770;28;20132;-67
2022/12/21 04:55:45;;;;;;;0.10;0.10;;;5.00;99.90;;;;;;5025301;28;20042;-67
2022/12/21 04:58:11;;;;;;;0.10;0.10;;;5.00;99.90;;;;;;5024599;28;20099;-67
2022/12/21 05:00:36;;;;;;;0.30;0.30;;;5.00;99.90;;;;;;5019047;28;20046;-67
2022/12/21 05:03:02;;;;;;;0.10;0.10;;;5.10;99.90;;;;;;5026972;28;20809;-67
2022/12/21 05:05:28;;;;;;;0.10;0.10;;;5.00;99.90;;;;;;5025212;28;20052;-67
2022/12/21 05:07:54;;;;;;;0.65;0.65;;;5.00;99.90;;;;;;5025277;28;20120;-67
2022/12/21 05:10:20;;;;;;;0.17;0.17;;;5.00;99.90;;;;;;5026684;28;20100;-67
2022/12/21 05:12:45;;;;;;;0.30;0.30;;;5.00;99.90;;;;;;5026848;28;20033;-67
2022/12/21 05:15:13;;;;;;;0.25;0.25;;;5.10;99.90;;;;;;5026520;28;20590;-67
2022/12/21 05:17:39;;;;;;;0.20;0.20;;;5.10;99.90;;;;;;5023967;28;20045;-67
2022/12/21 05:20:06;;;;;;;0.10;0.10;;;5.20;99.90;;;;;;5027056;28;20072;-67
2022/12/21 05:22:31;;;;;;;0.25;0.25;;;5.10;99.90;;;;;;5026923;28;20448;-67
2022/12/21 05:24:58;;;;;;;0.10;0.10;;;5.00;99.90;;;;;;5021342;28;20045;-67
2022/12/21 05:27:23;;;;;;;0.75;0.75;;;5.00;99.90;;;;;;5021551;28;20053;-67
2022/12/21 05:29:49;;;;;;;0.20;0.20;;;5.00;99.90;;;;;;5024088;28;20489;-67
2022/12/21 05:32:14;;;;;;;0.10;0.10;;;4.90;99.90;;;;;;5028205;28;20034;-67
2022/12/21 05:34:40;;;;;;;0.10;0.10;;;4.90;99.90;;;;;;5028585;28;20057;-67
2022/12/21 05:37:06;;;;;;;0.20;0.20;;;4.90;99.90;;;;;;5029025;28;20038;-67
2022/12/21 05:39:31;;;;;;;0.10;0.10;;;4.80;99.90;;;;;;5029895;28;20053;-67
2022/12/21 05:41:57;;;;;;;0.10;0.10;;;4.80;99.90;;;;;;5028736;28;20034;-67
2022/12/21 05:44:22;;;;;;;0.10;0.10;;;4.90;99.90;;;;;;5030264;28;20179;-67
2022/12/21 05:46:48;;;;;;;0.30;0.30;;;4.80;99.90;;;;;;5025122;28;20053;-67
2022/12/21 05:49:14;;;;;;;0.10;0.10;;;4.80;99.90;;;;;;5029288;28;20041;-67
2022/12/21 05:51:40;;;;;;;0.25;0.25;;;4.80;99.90;;;;;;5031272;28;20140;-67
2022/12/21 05:54:06;;;;;;;0.10;0.10;;;4.80;99.90;;;;;;5030363;28;20487;-66
2022/12/21 05:56:31;;;;;;;0.10;0.10;;;4.70;99.90;;;;;;5025848;28;20046;-67
2022/12/21 05:58:57;;;;;;;0.10;0.10;;;4.70;99.90;;;;;;5028122;28;20045;-67
2022/12/21 06:01:22;;;;;;;0.20;0.20;;;4.70;99.90;;;;;;5027346;28;20076;-67
2022/12/21 06:03:48;;;;;;;0.10;0.10;;;4.80;99.90;;;;;;5030824;28;20053;-67
2022/12/21 06:06:16;;;;;;;0.10;0.10;;;4.80;99.90;;;;;;5028852;28;20050;-67
2022/12/21 06:08:41;;;;;;;0.10;0.10;;;4.70;99.90;;;;;;5029967;28;20049;-67
2022/12/21 06:11:10;;;;;;;0.95;0.95;;;4.80;99.90;;;;;;5029678;28;20052;-67
2022/12/21 06:13:36;;;;;;;0.45;0.45;;;4.80;99.90;;;;;;5028533;28;20037;-67
2022/12/21 06:16:03;;;;;;;0.30;0.30;;;4.70;99.90;;;;;;5029720;28;20048;-67
2022/12/21 06:18:29;;;;;;;0.20;0.20;;;4.80;99.90;;;;;;5027551;28;20096;-67
2022/12/21 06:20:54;;;;;;;0.10;0.10;;;4.80;99.90;;;;;;5022488;28;20438;-67
2022/12/21 06:23:20;;;;;;;0.20;0.20;;;4.80;99.90;;;;;;5026638;28;20077;-67
2022/12/21 06:25:46;;;;;;;0.10;0.10;;;4.90;99.90;;;;;;5023164;28;20026;-67
2022/12/21 06:28:11;;;;;;;0.20;0.20;;;4.80;99.90;;;;;;5022887;28;20053;-67
2022/12/21 06:30:37;;;;;;;0.10;0.10;;;4.90;99.90;;;;;;5025851;28;20046;-67
2022/12/21 06:33:03;;;;;;;0.20;0.20;;;4.90;99.90;;;;;;5029278;28;20469;-67
2022/12/21 06:35:28;;;;;;;0.00;0.00;;;4.80;99.90;;;;;;5028250;28;20137;-67
2022/12/21 06:37:54;;;;;;;0.10;0.10;;;4.90;99.90;;;;;;5028223;28;20057;-67
2022/12/21 06:40:20;;;;;;;0.57;0.57;;;4.90;99.90;;;;;;5028060;28;20136;-67
2022/12/21 06:42:46;;;;;;;0.10;0.10;;;4.90;99.90;;;;;;5024568;28;20057;-67
2022/12/21 06:45:11;;;;;;;0.17;0.17;;;4.90;99.90;;;;;;5027113;28;20029;-67
2022/12/21 06:47:37;;;;;;;0.10;0.10;;;5.00;99.90;;;;;;5028441;28;20041;-67
2022/12/21 06:50:03;;;;;;;0.10;0.10;;;5.00;99.90;;;;;;5026334;28;20120;-66
2022/12/21 06:52:33;;;;;;;0.10;0.10;;;5.00;99.90;;;;;;5027027;28;20497;-67
2022/12/21 06:54:58;;;;;;;0.10;0.10;;;5.00;99.90;;;;;;5024974;28;20044;-67
2022/12/21 06:57:24;;;;;;;0.20;0.20;;;5.00;99.90;;;;;;5028603;28;20045;-67
2022/12/21 06:59:49;;;;;;;0.10;0.10;;;5.00;99.90;;;;;;5028763;28;20037;-67
2022/12/21 07:02:15;;;;;;;0.10;0.10;;;5.00;99.90;;;;;;5029294;28;20052;-66
2022/12/21 07:04:40;;;;;;;0.10;0.10;;;5.10;99.90;;;;;;5027177;28;20531;-67
2022/12/21 07:07:06;;;;;;;0.45;0.45;;;5.10;99.90;;;;;;5029380;28;20128;-67
2022/12/21 07:09:31;;;;;;;0.20;0.20;;;5.10;99.90;;;;;;5028310;28;20045;-67
2022/12/21 07:11:57;;;;;;;1.50;1.40;;;5.10;99.90;;;;;;5027916;28;20052;-67
2022/12/21 07:14:22;;;;;;;0.15;0.15;;;5.10;99.90;;;;;;5028552;28;20095;-67
2022/12/21 07:16:48;;;;;;;0.50;0.50;;;5.10;99.90;;;;;;5028551;28;20045;-67
2022/12/21 07:19:14;;;;;;;0.35;0.35;;;5.10;99.90;;;;;;5027218;28;20041;-67
2022/12/21 07:21:39;;;;;;;0.28;0.28;;;5.20;99.90;;;;;;5028008;28;20076;-67
2022/12/21 07:24:05;;;;;;;0.75;0.75;;;5.20;99.90;;;;;;5025458;28;20061;-67
2022/12/21 07:26:31;;;;;;;0.10;0.10;;;5.20;99.90;;;;;;5027341;28;20050;-67
2022/12/21 07:28:57;;;;;;;0.30;0.30;;;5.20;99.90;;;;;;5026874;28;20045;-67
2022/12/21 07:31:25;;;;;;;0.20;0.20;;;5.10;99.90;;;;;;5027383;28;20124;-67
2022/12/21 07:33:52;;;;;;;0.10;0.10;;;5.20;99.90;;;;;;5024258;28;20084;-67
2022/12/21 07:36:17;;;;;;;0.10;0.10;;;5.30;99.90;;;;;;5026090;28;20041;-67
2022/12/21 07:38:43;;;;;;;0.52;0.52;;;5.30;99.90;;;;;;5028197;28;20110;-67
2022/12/21 07:41:12;;;;;;;0.10;0.10;;;5.30;99.90;;;;;;5027903;28;20057;-67
2022/12/21 07:43:38;;;;;;;0.10;0.10;;;5.30;99.90;;;;;;5027978;28;20045;-67
2022/12/21 07:46:04;;;;;;;0.10;0.10;;;5.40;99.90;;;;;;5028070;28;20053;-67
2022/12/21 07:48:30;;;;;;;0.38;0.38;;;5.40;99.90;;;;;;5027256;28;21354;-67
2022/12/21 07:50:56;;;;;;;0.20;0.20;;;5.40;99.90;;;;;;5027732;28;20044;-67
2022/12/21 07:53:22;;;;;;;0.10;0.10;;;5.40;99.90;;;;;;5023390;28;20042;-66
2022/12/21 07:55:48;;;;;;;0.40;0.40;;;5.40;99.90;;;;;;5021948;28;20057;-66
2022/12/21 07:58:14;;;;;;;0.47;0.47;;;5.50;99.90;;;;;;5026437;28;20466;-67
2022/12/21 08:00:40;;;;;;;0.50;0.50;;;5.50;99.90;;;;;;5027781;28;20042;-67
2022/12/21 08:03:06;;;;;;;0.28;0.25;;;5.50;99.90;;;;;;5026750;28;20497;-67
2022/12/21 08:05:32;;;;;;;0.52;0.52;;;5.50;99.90;;;;;;5024154;28;20056;-68
2022/12/21 08:07:58;;;;;;;0.28;0.28;;;5.50;99.90;;;;;;5027998;28;20473;-67
2022/12/21 08:10:24;;;;;;;0.17;0.17;;;5.60;99.90;;;;;;5025670;28;20497;-67
2022/12/21 08:12:50;;;;;;;1.75;1.27;;;5.60;99.90;;;;;;5024441;28;20093;-67
2022/12/21 08:15:16;;;;;;;0.20;0.20;;;5.60;99.90;;;;;;5028477;28;20401;-67
2022/12/21 08:17:42;;;;;;;3.85;1.58;;;5.60;99.90;;;;;;5026717;28;20133;-67
2022/12/21 08:20:08;;;;;;;0.35;0.35;;;5.70;99.90;;;;;;5024742;28;20375;-67
2022/12/21 08:22:33;;;;;;;0.32;0.32;;;5.60;99.90;;;;;;5027972;28;20061;-67
2022/12/21 08:24:59;;;;;;;0.30;0.30;;;5.60;99.90;;;;;;5026081;28;20041;-67
2022/12/21 08:27:24;;;;;;;3.30;1.17;;;5.70;99.90;;;;;;5027525;28;20045;-67
2022/12/21 08:29:50;;;;;;;0.30;0.30;;;5.70;99.90;;;;;;5028212;28;20052;-67
2022/12/21 08:32:16;;;;;;;1.27;1.25;;;5.80;99.90;;;;;;5027657;28;20153;-67
2022/12/21 08:34:41;;;;;;;0.52;0.52;;;5.80;99.90;;;;;;5027404;28;20038;-67
2022/12/21 08:37:07;;;;;;;0.00;0.00;;;5.80;99.90;;;;;;5025901;28;20124;-67
2022/12/21 08:39:32;;;;;;;0.10;0.10;;;5.80;99.90;;;;;;5022556;28;20132;-67
2022/12/21 08:41:58;;;;;;;0.10;0.10;;;5.80;99.90;;;;;;5016971;28;20041;-66
2022/12/21 08:44:23;;;;;;;0.32;0.32;;;5.80;99.90;;;;;;5028123;28;20061;-67
2022/12/21 08:46:49;;;;;;;4.78;0.95;;;5.90;99.90;;;;;;5025169;28;20401;-67
2022/12/21 08:49:14;;;;;;;0.10;0.10;;;5.90;99.90;;;;;;5026424;28;20050;-67
2022/12/21 08:51:40;;;;;;;0.50;0.50;;;5.90;99.90;;;;;;5023421;28;20050;-66
2022/12/21 08:54:07;;;;;;;0.10;0.10;;;6.00;99.90;;;;;;5040900;28;20231;-67
2022/12/21 08:56:33;;;;;;;1.75;1.30;;;6.00;99.90;;;;;;5026127;28;20045;-67
2022/12/21 08:59:05;;;;;;;0.70;0.70;;;6.00;99.90;;;;;;5025879;28;20436;-67
2022/12/21 09:01:31;;;;;;;0.57;0.57;;;6.00;99.90;;;;;;5021505;28;20049;-66
2022/12/21 09:03:57;;;;;;;0.45;0.45;;;6.00;99.90;;;;;;5026147;28;20053;-67
2022/12/21 09:06:23;;;;;;;0.70;0.28;;;5.90;99.90;;;;;;5030186;28;20052;-67
2022/12/21 09:08:49;;;;;;;0.10;0.10;;;6.00;99.90;;;;;;5028988;28;20049;-66
2022/12/21 09:11:16;;;;;;;0.10;0.10;;;6.00;99.90;;;;;;5030449;28;20041;-66
2022/12/21 09:13:43;;;;;;;1.45;1.40;;;6.00;99.90;;;;;;5031941;28;20049;-67
2022/12/21 09:16:18;;;;;;;3.33;1.52;;;6.00;99.90;;;;;;5021909;28;20477;-67
2022/12/21 09:18:44;;;;;;;0.10;0.10;;;6.00;99.90;;;;;;5024027;28;20140;-67
2022/12/21 09:21:11;;;;;;;0.10;0.10;;;6.10;99.90;;;;;;5021402;28;20056;-67
2022/12/21 09:23:38;;;;;;;1.45;0.90;;;6.10;99.90;;;;;;5025957;28;20136;-67
2022/12/21 09:26:05;;;;;;;0.10;0.10;;;6.10;99.90;;;;;;5028395;28;20037;-67
2022/12/21 09:28:31;;;;;;;0.40;0.40;;;6.10;99.90;;;;;;5027833;28;20506;-67
2022/12/21 09:31:12;;;;;;;0.15;0.15;;;6.10;99.90;;;;;;5029056;28;20041;-67
2022/12/21 09:33:39;;;;;;;0.22;0.22;;;6.20;99.90;;;;;;5028919;28;20180;-67
2022/12/21 09:36:05;;;;;;;0.63;0.63;;;6.20;99.90;;;;;;5031150;28;20045;-67
2022/12/21 09:38:31;;;;;;;0.40;0.40;;;6.30;99.90;;;;;;5029451;28;20064;-67
2022/12/21 09:41:29;;;;;;;0.35;0.35;;;6.30;99.90;;;;;;5029941;28;20501;-66
2022/12/21 09:44:25;;;;;;;0.05;0.05;;;6.40;99.90;;;;;;5024317;28;20386;-67
2022/12/21 09:46:55;;;;;;;0.20;0.20;;;6.40;99.90;;;;;;5029433;28;20065;-67
2022/12/21 09:49:24;;;;;;;0.68;0.68;;;6.40;99.90;;;;;;5030340;28;20528;-64
2022/12/21 09:51:56;;;;;;;0.90;0.90;;;6.40;99.90;;;;;;5026205;28;20057;-64
2022/12/21 09:54:46;;;;;;;0.10;0.10;;;6.30;99.90;;;;;;5030372;28;20088;-64
2022/12/21 09:57:13;;;;;;;0.10;0.10;;;6.40;99.90;;;;;;5026901;28;20054;-64
2022/12/21 09:59:39;;;;;;;0.10;0.10;;;6.40;99.90;;;;;;5029631;28;20485;-64
2022/12/21 10:02:32;;;;;;;1.80;0.70;;;6.40;99.90;;;;;;5024018;28;20060;-64
2022/12/21 10:05:19;;;;;;;0.22;0.22;;;6.40;99.90;;;;;;5028343;28;20033;-64
2022/12/21 10:07:56;;;;;;;0.10;0.10;;;6.40;99.90;;;;;;5027991;28;20049;-64
2022/12/21 10:10:38;;;;;;;0.17;0.17;;;6.30;99.90;;;;;;5028231;28;20057;-64
2022/12/21 10:13:21;;;;;;;0.20;0.20;;;6.30;99.90;;;;;;5027290;28;20426;-64
2022/12/21 10:16:08;;;;;;;3.53;1.10;;;6.30;99.90;;;;;;5030392;28;20103;-65
2022/12/21 10:18:48;;;;;;;0.50;0.50;;;6.30;99.90;;;;;;5028921;28;20050;-64
2022/12/21 10:21:22;;;;;;;0.20;0.20;;;6.30;99.90;;;;;;5028288;28;20124;-64
2022/12/21 10:23:52;;;;;;;0.45;0.45;;;6.30;99.90;;;;;;5028099;28;20049;-64
2022/12/21 10:26:25;;;;;;;0.05;0.05;;;6.30;99.90;;;;;;5022050;28;20406;-64
2022/12/21 10:28:51;;;;;;;;;;;6.40;99.90;;;;;;5015875;28;20053;-64
2022/12/21 10:31:35;;;;;;;0.20;0.20;;;6.40;99.90;;;;;;5019798;28;20427;-65
2022/12/21 10:34:07;;;;;;;0.88;0.88;;;6.50;99.90;;;;;;5028103;28;20048;-63
2022/12/21 10:36:36;;;;;;;0.43;0.43;;;6.50;99.90;;;;;;5021900;28;20120;-63
2022/12/21 10:39:04;;;;;;;10.98;1.13;;;6.50;99.90;;;;;;5027947;28;20808;-64
2022/12/21 10:41:34;;;;;;;0.10;0.10;;;6.50;99.90;;;;;;5021716;28;20041;-64
2022/12/21 10:44:01;;;;;;;0.20;0.20;;;6.50;99.90;;;;;;5026596;28;20052;-64
2022/12/21 10:46:32;;;;;;;1.67;1.58;;;6.60;99.90;;;;;;5026872;28;20068;-64
2022/12/21 10:49:04;;;;;;;0.30;0.30;;;6.60;99.90;;;;;;5026658;28;20135;-64
2022/12/21 10:51:34;;;;;;;2.78;2.13;;;6.60;99.90;;;;;;5026802;28;20084;-65
2022/12/21 10:54:05;;;;;;;0.55;0.55;;;6.60;99.90;;;;;;5023888;28;20546;-65
2022/12/21 10:56:46;;;;;;;0.50;0.50;;;6.70;99.90;;;;;;5025047;28;20045;-66
2022/12/21 10:59:23;;;;;;;0.57;0.57;;;6.60;99.90;;;;;;5026531;28;20128;-66
2022/12/21 11:01:50;;;;;;;0.63;0.63;;;6.70;99.90;;;;;;5024149;28;20050;-66
2022/12/21 11:04:22;;;;;;;0.10;0.10;;;6.70;99.90;;;;;;5020327;28;20452;-66
2022/12/21 11:06:55;;;;;;;0.10;0.10;;;6.80;99.90;;;;;;5028041;28;20041;-66
2022/12/21 11:09:40;;;;;;;0.20;0.20;;;6.80;99.90;;;;;;5029197;28;20067;-66
2022/12/21 11:12:23;;;;;;;0.20;0.20;;;6.80;99.90;;;;;;5029726;28;20405;-66
2022/12/21 11:14:50;;;;;;;5.50;1.03;;;6.90;99.90;;;;;;5027427;28;20041;-66
2022/12/21 11:17:24;;;;;;;5.93;2.50;;;6.90;99.90;;;;;;5042928;28;20045;-66
2022/12/21 11:20:04;;;;;;;;;;;7.00;99.90;;;;;;5024268;28;20099;-66
2022/12/21 11:22:31;;;;;;;0.52;0.52;;;7.10;99.90;;;;;;5021514;28;19917;-66
2022/12/21 11:24:58;;;;;;;0.10;0.10;;;7.10;99.90;;;;;;5024447;28;20080;-66
2022/12/21 11:27:35;;;;;;;0.65;0.65;;;7.10;99.90;;;;;;5028197;28;20056;-66
2022/12/21 11:30:09;;;;;;;3.50;2.45;;;7.10;99.90;;;;;;5025284;28;20397;-66
2022/12/21 11:32:42;;;;;;;3.50;2.08;;;7.20;99.90;;;;;;5028992;28;20041;-66
2022/12/21 11:35:18;;;;;;;0.20;0.20;;;7.30;99.90;;;;;;5029298;28;20045;-66
2022/12/21 11:37:50;;;;;;;0.75;0.75;;;7.30;99.90;;;;;;5024634;28;20871;-66
2022/12/21 11:40:22;;;;;;;0.30;0.30;;;7.40;99.90;;;;;;5028332;28;20416;-66
2022/12/21 11:43:00;;;;;;;0.68;0.68;;;7.40;99.90;;;;;;5026263;28;20048;-66
2022/12/21 11:45:34;;;;;;;1.90;0.52;;;7.60;99.90;;;;;;5026773;28;20868;-66
2022/12/21 11:48:42;;;;;;;0.60;0.60;;;7.60;99.90;;;;;;5026799;28;20041;-65
2022/12/21 11:51:26;;;;;;;0.50;0.50;;;7.70;99.90;;;;;;5025111;28;20052;-66
2022/12/21 11:53:54;;;;;;;3.95;2.80;;;7.80;99.90;;;;;;5026490;28;20404;-66
2022/12/21 11:56:32;;;;;;;0.55;0.55;;;7.90;99.90;;;;;;5027925;28;20061;-66
2022/12/21 11:59:10;;;;;;;2.22;0.85;;;8.00;99.90;;;;;;5026513;28;20072;-66
2022/12/21 12:02:06;;;;;;;2.30;1.85;;;8.10;99.90;;;;;;5022386;28;20049;-66
2022/12/21 12:05:00;;;;;;;1.30;1.23;;;8.20;99.90;;;;;;5023307;28;20045;-67
2022/12/21 12:07:36;;;;;;;1.40;0.97;;;8.30;99.90;;;;;;5025390;28;20084;-66
2022/12/21 12:10:19;;;;;;;0.30;0.30;;;8.40;99.90;;;;;;5026255;28;20442;-66
2022/12/21 12:12:50;;;;;;;0.17;0.17;;;8.50;99.90;;;;;;5026019;28;20075;-66
2022/12/21 12:16:04;;;;;;;0.35;0.35;;;8.60;99.90;;;;;;5025834;28;20053;-66
2022/12/21 12:18:44;;;;;;;4.55;1.75;;;8.60;99.90;;;;;;5010417;28;20132;-66
2022/12/21 12:21:33;;;;;;;5.63;1.15;;;8.60;99.90;;;;;;5019841;28;20107;-66
2022/12/21 12:24:14;;;;;;;0.90;0.90;;;8.40;99.90;;;;;;5020227;28;20053;-66
2022/12/21 12:27:08;;;;;;;0.20;0.20;;;8.30;99.90;;;;;;5023742;28;20077;-66
2022/12/21 12:29:59;;;;;;;3.35;3.05;;;8.10;99.90;;;;;;5026408;28;20045;-66
2022/12/21 12:32:39;;;;;;;0.57;0.57;;;8.00;99.90;;;;;;5027265;28;20049;-66
2022/12/21 12:35:08;;;;;;;1.10;1.10;;;7.90;99.90;;;;;;5025430;28;20065;-66
2022/12/21 12:38:04;;;;;;;1.10;1.10;;;7.80;99.90;;;;;;5024600;28;20049;-66
2022/12/21 12:40:44;;;;;;;1.75;1.65;;;7.80;99.90;;;;;;5027279;28;20502;-66
2022/12/21 12:43:31;;;;;;;0.40;0.40;;;7.60;99.90;;;;;;5012311;28;20493;-66
2022/12/21 12:46:23;;;;;;;1.25;1.17;;;7.60;99.90;;;;;;5028339;28;20049;-66
2022/12/21 12:49:03;;;;;;;0.65;0.65;;;7.50;99.90;;;;;;5027804;28;20053;-66
2022/12/21 12:51:40;;;;;;;3.42;1.05;;;7.60;99.90;;;;;;5031683;28;20476;-66
2022/12/21 12:54:26;;;;;;;1.00;0.95;;;7.60;99.90;;;;;;5030254;28;20041;-66
2022/12/21 12:57:00;;;;;;;2.08;1.40;;;7.60;99.90;;;;;;5027630;28;20442;-66
2022/12/21 12:59:34;;;;;;;2.85;1.13;;;7.60;99.90;;;;;;5030376;28;20140;-66
2022/12/21 13:02:21;;;;;;;1.85;1.75;;;7.70;99.90;;;;;;5028666;28;20096;-66
2022/12/21 13:05:05;;;;;;;1.45;1.35;;;7.70;99.90;;;;;;5028421;28;20081;-66
2022/12/21 13:07:54;;;;;;;1.95;1.85;;;7.80;99.90;;;;;;5027598;28;20790;-66
2022/12/21 13:10:27;;;;;;;0.45;0.45;;;7.80;99.90;;;;;;5028396;28;20441;-66
2022/12/21 13:12:58;;;;;;;1.08;1.08;;;7.80;99.90;;;;;;5025874;28;20057;-66
2022/12/21 13:15:54;;;;;;;1.75;1.63;;;7.80;99.90;;;;;;5026845;28;20076;-65
2022/12/21 13:18:25;;;;;;;0.95;0.95;;;7.80;99.90;;;;;;5027680;28;20061;-65
2022/12/21 13:20:56;;;;;;;0.88;0.88;;;7.80;99.90;;;;;;5028284;28;20072;-65
2022/12/21 13:23:37;;;;;;;0.77;0.77;;;7.80;99.90;;;;;;5028828;28;20060;-66
2022/12/21 13:26:13;;;;;;;0.65;0.65;;;7.90;99.90;;;;;;5029010;28;20068;-66
2022/12/21 13:28:49;;;;;;;1.10;1.10;;;7.90;99.90;;;;;;5029839;28;20045;-65
2022/12/21 13:31:20;;;;;;;0.35;0.35;;;7.90;99.90;;;;;;5025296;28;20056;-65